createdAt,value
2022-08-05T00:00:09.003Z,22.97
2022-08-05T00:02:57.942Z,22.85
2022-08-05T00:06:05.410Z,22.90
2022-08-05T00:08:55.005Z,22.76
2022-08-05T00:11:49.479Z,22.70
2022-08-05T00:14:45.407Z,22.64
2022-08-05T00:17:40.122Z,22.62
2022-08-05T00:20:30.150Z,22.65
2022-08-05T00:23:44.617Z,22.68
2022-08-05T00:26:27.868Z,22.62
2022-08-05T00:29:19.071Z,22.59
2022-08-05T00:32:15.391Z,22.58
2022-08-05T00:35:06.839Z,22.55
2022-08-05T00:37:56.172Z,22.60
2022-08-05T00:40:51.961Z,22.62
2022-08-05T00:43:46.893Z,22.65
2022-08-05T00:46:42.668Z,22.65
2022-08-05T00:49:44.772Z,22.63
2022-08-05T00:52:40.004Z,22.62
2022-08-05T00:55:42.661Z,22.60
2022-08-05T00:58:32.258Z,22.57
2022-08-05T01:01:42.118Z,22.62
2022-08-05T01:04:29.930Z,22.42
2022-08-05T01:07:20.020Z,22.43
2022-08-05T01:10:11.520Z,22.37
2022-08-05T01:13:19.382Z,22.36
2022-08-05T01:16:26.245Z,22.28
2022-08-05T01:19:36.566Z,22.26
2022-08-05T01:22:54.096Z,22.25
2022-08-05T01:25:58.735Z,22.01
2022-08-05T01:28:54.999Z,22.04
2022-08-05T01:31:47.816Z,21.93
2022-08-05T01:34:42.552Z,21.85
2022-08-05T01:37:44.282Z,21.80
2022-08-05T01:40:35.145Z,21.78
2022-08-05T01:43:25.377Z,21.79
2022-08-05T01:46:41.209Z,21.63
2022-08-05T01:49:26.886Z,21.46
2022-08-05T01:52:39.279Z,21.39
2022-08-05T01:55:30.613Z,21.45
2022-08-05T01:58:41.016Z,21.29
2022-08-05T02:01:40.321Z,21.20
2022-08-05T02:04:30.424Z,21.23
2022-08-05T02:07:21.883Z,21.11
2022-08-05T02:10:12.601Z,21.08
2022-08-05T02:13:16.029Z,21.01
2022-08-05T02:16:16.471Z,21.08
2022-08-05T02:19:13.080Z,21.13
2022-08-05T02:22:07.205Z,21.04
2022-08-05T02:25:02.953Z,20.93
2022-08-05T02:27:58.224Z,20.97
2022-08-05T02:30:55.657Z,20.90
2022-08-05T02:33:57.446Z,20.98
2022-08-05T02:36:53.068Z,20.90
2022-08-05T02:39:43.232Z,21.01
2022-08-05T02:42:37.201Z,20.95
2022-08-05T02:45:27.130Z,20.99
2022-08-05T02:48:18.552Z,21.07
2022-08-05T02:51:07.522Z,21.07
2022-08-05T02:54:03.989Z,21.04
2022-08-05T02:56:53.398Z,21.12
2022-08-05T02:59:50.368Z,21.02
2022-08-05T03:02:42.939Z,21.05
2022-08-05T03:06:56.882Z,21.02
2022-08-05T03:08:43.300Z,20.92
2022-08-05T03:11:54.843Z,20.93
2022-08-05T03:14:46.088Z,20.87
2022-08-05T03:17:34.961Z,20.90
2022-08-05T03:20:30.479Z,20.90
2022-08-05T03:23:19.154Z,20.92
2022-08-05T03:26:31.781Z,20.92
2022-08-05T03:29:22.565Z,20.92
2022-08-05T03:32:12.047Z,20.83
2022-08-05T03:35:04.454Z,20.82
2022-08-05T03:37:53.531Z,20.84
2022-08-05T03:40:45.279Z,20.89
2022-08-05T03:44:09.269Z,20.82
2022-08-05T03:46:45.640Z,20.80
2022-08-05T03:49:51.716Z,20.78
2022-08-05T03:55:06.810Z,20.87
2022-08-05T03:56:12.115Z,20.88
2022-08-05T03:59:10.501Z,20.93
2022-08-05T04:02:02.576Z,21.02
2022-08-05T04:04:53.189Z,21.00
2022-08-05T04:07:58.733Z,21.00
2022-08-05T04:10:47.815Z,21.08
2022-08-05T04:13:49.948Z,21.09
2022-08-05T04:16:39.367Z,21.14
2022-08-05T04:19:30.626Z,21.23
2022-08-05T04:22:20.647Z,21.25
2022-08-05T04:25:11.041Z,21.40
2022-08-05T04:28:03.960Z,21.51
2022-08-05T04:31:01.169Z,21.55
2022-08-05T04:34:17.302Z,21.69
2022-08-05T04:37:01.029Z,21.71
2022-08-05T04:39:52.899Z,21.86
2022-08-05T04:42:44.217Z,21.83
2022-08-05T04:45:48.200Z,21.91
2022-08-05T04:48:37.786Z,21.98
2022-08-05T04:51:26.167Z,21.96
2022-08-05T04:54:21.998Z,22.03
2022-08-05T04:57:10.399Z,21.97
2022-08-05T04:59:59.061Z,22.23
2022-08-05T05:02:47.616Z,22.32
2022-08-05T05:06:40.069Z,22.34
2022-08-05T05:08:45.248Z,22.47
2022-08-05T05:11:52.776Z,22.64
2022-08-05T05:14:49.470Z,22.66
2022-08-05T05:17:55.930Z,22.76
2022-08-05T05:20:46.953Z,22.73
2022-08-05T05:24:02.412Z,22.73
2022-08-05T05:26:48.005Z,22.80
2022-08-05T05:29:40.932Z,22.92
2022-08-05T05:32:49.214Z,22.99
2022-08-05T05:35:39.701Z,23.17
2022-08-05T05:38:31.008Z,23.21
2022-08-05T05:41:20.058Z,23.02
2022-08-05T05:44:35.949Z,23.39
2022-08-05T05:47:30.538Z,23.51
2022-08-05T05:50:27.897Z,23.69
2022-08-05T05:53:22.112Z,23.89
2022-08-05T05:56:10.969Z,23.90
2022-08-05T05:59:03.113Z,23.77
2022-08-05T06:01:57.698Z,24.08
2022-08-05T06:04:49.207Z,24.27
2022-08-05T06:07:41.834Z,24.45
2022-08-05T06:10:36.321Z,24.47
2022-08-05T06:13:26.169Z,24.65
2022-08-05T06:16:28.432Z,24.79
2022-08-05T06:19:32.902Z,25.01
2022-08-05T06:22:24.973Z,25.15
2022-08-05T06:25:59.741Z,25.24
2022-08-05T06:28:22.025Z,25.34
2022-08-05T06:31:11.124Z,25.39
2022-08-05T06:34:09.014Z,25.52
2022-08-05T06:36:59.055Z,25.62
2022-08-05T06:39:47.629Z,25.63
2022-08-05T06:42:37.486Z,25.83
2022-08-05T06:46:03.346Z,25.96
2022-08-05T06:48:55.953Z,26.07
2022-08-05T06:51:45.868Z,26.16
2022-08-05T06:54:36.430Z,26.16
2022-08-05T06:58:03.132Z,26.35
2022-08-05T07:00:34.010Z,26.44
2022-08-05T07:03:28.068Z,26.55
2022-08-05T07:06:22.891Z,26.74
2022-08-05T07:09:11.440Z,26.77
2022-08-05T07:12:03.784Z,26.88
2022-08-05T07:15:34.561Z,26.93
2022-08-05T07:18:30.079Z,27.11
2022-08-05T07:21:25.837Z,27.27
2022-08-05T07:24:14.554Z,27.37
2022-08-05T07:27:04.326Z,27.52
2022-08-05T07:30:27.579Z,27.66
2022-08-05T07:33:15.529Z,27.80
2022-08-05T07:36:20.246Z,27.98
2022-08-05T07:39:24.641Z,28.12
2022-08-05T07:42:33.372Z,28.11
2022-08-05T07:45:56.318Z,28.20
2022-08-05T07:49:00.597Z,28.40
2022-08-05T07:51:48.901Z,28.32
2022-08-05T07:54:49.043Z,28.45
2022-08-05T07:57:55.276Z,28.66
2022-08-05T08:00:47.905Z,28.68
2022-08-05T08:03:44.070Z,28.95
2022-08-05T08:06:33.496Z,29.12
2022-08-05T08:09:22.001Z,29.22
2022-08-05T08:12:29.698Z,29.26
2022-08-05T08:15:37.157Z,29.48
2022-08-05T08:18:28.915Z,29.38
2022-08-05T08:21:17.669Z,29.49
2022-08-05T08:24:13.813Z,29.61
2022-08-05T08:27:02.669Z,29.81
2022-08-05T08:30:05.854Z,29.44
2022-08-05T08:33:13.846Z,29.60
2022-08-05T08:36:29.589Z,30.01
2022-08-05T08:39:15.844Z,30.27
2022-08-05T08:42:10.607Z,30.18
2022-08-05T08:45:22.070Z,30.44
2022-08-05T08:48:41.344Z,30.67
2022-08-05T08:52:04.031Z,30.82
2022-08-05T08:54:37.779Z,30.83
2022-08-05T08:57:48.161Z,30.84
2022-08-05T09:00:37.500Z,30.97
2022-08-05T09:03:28.243Z,31.15
2022-08-05T09:06:31.374Z,31.22
2022-08-05T09:09:19.965Z,31.11
2022-08-05T09:12:20.254Z,31.26
2022-08-05T09:15:15.608Z,31.25
2022-08-05T09:18:04.155Z,31.35
2022-08-05T09:20:54.821Z,31.66
2022-08-05T09:23:46.316Z,31.66
2022-08-05T09:26:36.711Z,31.86
2022-08-05T09:29:47.543Z,31.94
2022-08-05T09:32:51.841Z,31.98
2022-08-05T09:36:11.749Z,31.84
2022-08-05T09:39:16.812Z,32.15
2022-08-05T09:42:08.395Z,32.20
2022-08-05T09:45:17.569Z,32.37
2022-08-05T09:48:27.042Z,32.41
2022-08-05T09:51:18.195Z,32.44
2022-08-05T09:54:09.505Z,32.65
2022-08-05T09:57:01.314Z,32.74
2022-08-05T09:59:50.254Z,32.57
2022-08-05T10:02:42.307Z,32.80
2022-08-05T10:05:32.838Z,33.05
2022-08-05T10:08:37.394Z,33.11
2022-08-05T10:11:31.335Z,33.03
2022-08-05T10:14:26.767Z,33.11
2022-08-05T10:17:37.622Z,32.97
2022-08-05T10:20:26.467Z,33.24
2022-08-05T10:23:34.413Z,33.52
2022-08-05T10:26:32.707Z,33.21
2022-08-05T10:30:41.984Z,33.38
2022-08-05T10:32:59.250Z,33.69
2022-08-05T10:35:59.063Z,33.70
2022-08-05T10:38:50.005Z,33.86
2022-08-05T10:41:47.816Z,34.00
2022-08-05T10:44:37.791Z,34.06
2022-08-05T10:47:34.440Z,33.86
2022-08-05T10:50:36.559Z,33.65
2022-08-05T10:53:38.167Z,33.65
2022-08-05T10:56:29.608Z,33.91
2022-08-05T11:00:02.517Z,34.17
2022-08-05T11:02:37.973Z,34.35
2022-08-05T11:05:29.315Z,34.13
2022-08-05T11:08:36.526Z,34.42
2022-08-05T11:11:52.163Z,34.43
2022-08-05T11:15:01.463Z,34.70
2022-08-05T11:18:00.452Z,34.83
2022-08-05T11:20:59.022Z,34.92
2022-08-05T11:24:05.092Z,35.17
2022-08-05T11:27:50.812Z,35.25
2022-08-05T11:31:08.675Z,34.95
2022-08-05T11:34:03.598Z,34.75
2022-08-05T11:36:53.247Z,35.02
2022-08-05T11:40:00.766Z,35.30
2022-08-05T11:42:51.717Z,35.04
2022-08-05T11:46:15.326Z,35.10
2022-08-05T11:48:57.718Z,35.11
2022-08-05T11:51:50.755Z,35.39
2022-08-05T11:54:40.352Z,35.53
2022-08-05T11:58:08.272Z,35.61
2022-08-05T12:00:39.140Z,36.25
2022-08-05T12:03:31.942Z,36.89
2022-08-05T12:06:23.043Z,37.64
2022-08-05T12:09:19.966Z,38.14
2022-08-05T12:12:09.598Z,38.95
2022-08-05T12:14:58.674Z,39.39
2022-08-05T12:18:03.999Z,40.13
2022-08-05T12:20:55.653Z,40.34
2022-08-05T12:23:54.316Z,40.86
2022-08-05T12:26:46.609Z,41.49
2022-08-05T12:29:37.983Z,41.14
2022-08-05T12:32:27.601Z,40.91
2022-08-05T12:35:16.872Z,41.41
2022-08-05T12:38:11.007Z,40.22
2022-08-05T12:41:00.644Z,38.48
2022-08-05T12:43:52.736Z,39.39
2022-08-05T12:46:45.619Z,41.02
2022-08-05T12:50:04.623Z,42.01
2022-08-05T12:52:59.815Z,42.42
2022-08-05T12:55:48.174Z,43.03
2022-08-05T12:58:53.531Z,43.20
2022-08-05T13:02:04.165Z,43.31
2022-08-05T13:04:56.499Z,43.07
2022-08-05T13:08:00.287Z,43.18
2022-08-05T13:10:50.477Z,43.61
2022-08-05T13:14:06.090Z,42.66
2022-08-05T13:16:59.755Z,42.85
2022-08-05T13:20:06.367Z,43.09
2022-08-05T13:22:57.426Z,43.22
2022-08-05T13:25:51.898Z,42.43
2022-08-05T13:28:47.566Z,42.97
2022-08-05T13:32:04.330Z,42.68
2022-08-05T13:34:52.017Z,42.48
2022-08-05T13:37:40.481Z,42.43
2022-08-05T13:40:48.015Z,42.49
2022-08-05T13:43:44.916Z,42.71
2022-08-05T13:47:05.008Z,42.31
2022-08-05T13:49:53.573Z,42.68
2022-08-05T13:52:42.112Z,42.65
2022-08-05T13:55:41.576Z,42.59
2022-08-05T13:58:37.805Z,42.13
2022-08-05T14:01:36.375Z,42.74
2022-08-05T14:04:53.929Z,42.83
2022-08-05T14:07:59.635Z,42.94
2022-08-05T14:10:53.966Z,42.72
2022-08-05T14:13:54.901Z,43.16
2022-08-05T14:16:45.462Z,43.12
2022-08-05T14:19:54.095Z,43.49
2022-08-05T14:22:50.247Z,43.52
2022-08-05T14:25:45.391Z,43.87
2022-08-05T14:28:34.717Z,44.50
2022-08-05T14:32:02.725Z,43.13
2022-08-05T14:34:35.404Z,43.25
2022-08-05T14:37:48.083Z,43.74
2022-08-05T14:40:34.432Z,44.17
2022-08-05T14:43:22.878Z,44.86
2022-08-05T14:46:32.247Z,44.60
2022-08-05T14:49:23.676Z,44.91
2022-08-05T14:52:52.489Z,44.76
2022-08-05T14:55:41.973Z,44.20
2022-08-05T14:58:30.414Z,44.37
2022-08-05T15:01:22.765Z,45.02
2022-08-05T15:04:28.926Z,45.46
2022-08-05T15:08:11.518Z,45.21
2022-08-05T15:10:28.948Z,44.71
2022-08-05T15:13:19.064Z,44.45
2022-08-05T15:16:13.219Z,44.15
2022-08-05T15:19:01.644Z,43.23
2022-08-05T15:21:50.018Z,44.18
2022-08-05T15:24:39.712Z,44.77
2022-08-05T15:27:35.854Z,44.49
2022-08-05T15:30:25.958Z,44.45
2022-08-05T15:34:04.564Z,44.59
2022-08-05T15:36:24.743Z,43.66
2022-08-05T15:41:01.027Z,43.96
2022-08-05T15:42:55.890Z,43.86
2022-08-05T15:45:38.307Z,44.56
2022-08-05T15:48:27.394Z,44.91
2022-08-05T15:51:15.994Z,44.41
2022-08-05T15:54:08.125Z,43.50
2022-08-05T15:56:56.931Z,43.68
2022-08-05T15:59:45.410Z,43.19
2022-08-05T16:02:35.917Z,43.81
2022-08-05T16:05:28.370Z,44.34
2022-08-05T16:08:16.975Z,43.77
2022-08-05T16:11:08.176Z,45.03
2022-08-05T16:13:56.507Z,45.12
2022-08-05T16:16:44.960Z,45.04
2022-08-05T16:20:04.270Z,45.00
2022-08-05T16:22:44.331Z,44.78
2022-08-05T16:25:34.146Z,44.22
2022-08-05T16:28:24.959Z,44.56
2022-08-05T16:31:16.247Z,43.92
2022-08-05T16:34:04.673Z,43.37
2022-08-05T16:36:56.311Z,43.45
2022-08-05T16:40:06.458Z,43.66
2022-08-05T16:42:53.933Z,44.29
2022-08-05T16:46:04.466Z,44.18
2022-08-05T16:48:50.727Z,43.74
2022-08-05T16:51:42.785Z,43.34
2022-08-05T16:54:41.289Z,42.52
2022-08-05T16:57:53.813Z,42.94
2022-08-05T17:00:38.592Z,42.55
2022-08-05T17:03:28.525Z,42.14
2022-08-05T17:06:19.566Z,42.45
2022-08-05T17:09:08.387Z,42.36
2022-08-05T17:11:59.619Z,41.48
2022-08-05T17:14:48.601Z,41.74
2022-08-05T17:17:42.396Z,42.00
2022-08-05T17:20:31.653Z,41.51
2022-08-05T17:24:04.877Z,41.06
2022-08-05T17:26:28.574Z,40.72
2022-08-05T17:29:22.464Z,40.80
2022-08-05T17:32:21.348Z,40.97
2022-08-05T17:35:15.476Z,40.41
2022-08-05T17:38:07.827Z,40.12
2022-08-05T17:40:56.882Z,40.52
2022-08-05T17:43:50.505Z,39.94
2022-08-05T17:46:43.322Z,39.68
2022-08-05T17:49:59.510Z,39.32
2022-08-05T17:52:53.075Z,38.98
2022-08-05T17:55:43.410Z,38.28
2022-08-05T17:58:35.207Z,38.41
2022-08-05T18:01:25.568Z,38.43
2022-08-05T18:04:21.162Z,38.32
2022-08-05T18:07:15.554Z,37.76
2022-08-05T18:10:10.168Z,37.48
2022-08-05T18:12:59.110Z,37.34
2022-08-05T18:15:50.357Z,36.94
2022-08-05T18:18:39.852Z,36.66
2022-08-05T18:22:09.297Z,36.28
2022-08-05T18:24:39.590Z,35.89
2022-08-05T18:27:28.434Z,35.38
2022-08-05T18:30:16.886Z,35.37
2022-08-05T18:33:06.282Z,35.08
2022-08-05T18:36:03.849Z,34.78
2022-08-05T18:38:55.153Z,34.73
2022-08-05T18:41:58.476Z,34.58
2022-08-05T18:44:56.183Z,34.46
2022-08-05T18:47:45.862Z,34.31
2022-08-05T18:50:54.900Z,34.04
2022-08-05T18:53:45.869Z,33.94
2022-08-05T18:56:40.546Z,33.81
2022-08-05T18:59:44.254Z,33.69
2022-08-05T19:02:38.455Z,33.60
2022-08-05T19:06:13.576Z,33.48
2022-08-05T19:08:35.613Z,33.19
2022-08-05T19:11:28.422Z,32.97
2022-08-05T19:14:44.717Z,32.91
2022-08-05T19:17:33.683Z,32.67
2022-08-05T19:20:35.643Z,32.40
2022-08-05T19:24:07.125Z,32.24
2022-08-05T19:26:33.688Z,32.10
2022-08-05T19:29:26.827Z,31.94
2022-08-05T19:32:26.189Z,31.67
2022-08-05T19:35:15.581Z,31.47
2022-08-05T19:38:06.436Z,31.34
2022-08-05T19:40:56.437Z,31.33
2022-08-05T19:44:06.102Z,31.18
2022-08-05T19:46:55.808Z,30.98
2022-08-05T19:49:46.305Z,30.91
2022-08-05T19:52:34.975Z,30.77
2022-08-05T19:56:15.598Z,30.73
2022-08-05T19:58:32.739Z,30.73
2022-08-05T20:01:41.155Z,30.67
2022-08-05T20:04:33.437Z,30.53
2022-08-05T20:07:38.935Z,30.52
2022-08-05T20:10:30.425Z,30.38
2022-08-05T20:13:29.998Z,30.21
2022-08-05T20:16:27.803Z,30.17
2022-08-05T20:19:16.406Z,30.15
2022-08-05T20:22:06.372Z,30.07
2022-08-05T20:24:58.266Z,30.01
2022-08-05T20:27:46.713Z,29.88
2022-08-05T20:30:38.608Z,29.73
2022-08-05T20:33:27.103Z,29.71
2022-08-05T20:36:22.387Z,29.65
2022-08-05T20:39:12.942Z,29.60
2022-08-05T20:42:01.895Z,29.57
2022-08-05T20:44:50.439Z,29.51
2022-08-05T20:47:40.061Z,29.46
2022-08-05T20:50:28.712Z,29.44
2022-08-05T20:53:40.612Z,29.37
2022-08-05T20:56:31.890Z,29.29
2022-08-05T20:59:26.896Z,29.24
2022-08-05T21:02:39.342Z,29.12
2022-08-05T21:05:38.005Z,29.05
2022-08-05T21:08:42.373Z,28.94
2022-08-05T21:12:07.367Z,28.88
2022-08-05T21:14:42.308Z,28.75
2022-08-05T21:17:31.951Z,28.72
2022-08-05T21:20:33.208Z,28.58
2022-08-05T21:23:22.716Z,28.52
2022-08-05T21:26:12.643Z,28.38
2022-08-05T21:29:05.047Z,28.44
2022-08-05T21:31:58.506Z,28.33
2022-08-05T21:35:08.421Z,28.31
2022-08-05T21:37:55.491Z,28.30
2022-08-05T21:40:43.916Z,28.30
2022-08-05T21:43:41.785Z,28.28
2022-08-05T21:46:32.059Z,28.16
2022-08-05T21:49:48.050Z,28.12
2022-08-05T21:52:31.988Z,28.09
2022-08-05T21:55:42.912Z,28.03
2022-08-05T21:58:31.484Z,27.94
2022-08-05T22:01:24.791Z,27.96
2022-08-05T22:04:14.856Z,27.87
2022-08-05T22:07:03.213Z,27.85
2022-08-05T22:09:51.699Z,27.77
2022-08-05T22:12:50.608Z,27.70
2022-08-05T22:15:56.555Z,27.60
2022-08-05T22:18:49.162Z,27.54
2022-08-05T22:21:39.143Z,27.34
2022-08-05T22:24:52.102Z,27.38
2022-08-05T22:28:11.308Z,27.32
2022-08-05T22:30:57.910Z,27.32
2022-08-05T22:33:58.071Z,27.30
2022-08-05T22:36:51.620Z,27.25
2022-08-05T22:39:40.609Z,27.22
2022-08-05T22:42:29.873Z,27.17
2022-08-05T22:45:19.815Z,27.15
2022-08-05T22:48:08.401Z,27.09
2022-08-05T22:50:56.973Z,27.09
2022-08-05T22:53:49.783Z,27.05
2022-08-05T22:56:40.047Z,27.05
2022-08-05T22:59:45.105Z,27.06
2022-08-05T23:02:37.610Z,27.02
2022-08-05T23:05:36.103Z,27.02
2022-08-05T23:08:24.721Z,27.01
2022-08-05T23:11:15.670Z,27.00
2022-08-05T23:14:04.429Z,26.96
2022-08-05T23:17:24.598Z,27.00
2022-08-05T23:20:23.558Z,27.00
2022-08-05T23:23:13.284Z,27.00
2022-08-05T23:26:01.841Z,27.01
2022-08-05T23:28:53.082Z,26.98
2022-08-05T23:31:42.567Z,26.99
2022-08-05T23:34:30.913Z,26.99
2022-08-05T23:37:19.821Z,26.94
2022-08-05T23:40:09.550Z,26.93
2022-08-05T23:43:00.071Z,26.93
2022-08-05T23:45:49.904Z,26.84
2022-08-05T23:48:39.325Z,26.66
2022-08-05T23:51:46.495Z,26.68
2022-08-05T23:54:41.255Z,26.25
2022-08-05T23:57:30.164Z,26.44
